createdAt,value
2023-04-03T00:01:54.655Z,100.00
2023-04-03T00:04:21.241Z,100.00
2023-04-03T00:06:47.785Z,100.00
2023-04-03T00:09:14.273Z,100.00
2023-04-03T00:11:40.729Z,100.00
2023-04-03T00:14:07.426Z,100.00
2023-04-03T00:16:33.955Z,100.00
2023-04-03T00:19:00.793Z,100.00
2023-04-03T00:21:27.321Z,100.00
2023-04-03T00:23:53.879Z,100.00
2023-04-03T00:26:20.865Z,100.00
2023-04-03T00:28:47.376Z,100.00
2023-04-03T00:31:16.871Z,100.00
2023-04-03T00:33:43.397Z,100.00
2023-04-03T00:36:11.436Z,100.00
2023-04-03T00:38:38.180Z,100.00
2023-04-03T00:41:05.588Z,100.00
2023-04-03T00:43:32.189Z,100.00
2023-04-03T00:45:59.820Z,100.00
2023-04-03T00:48:37.343Z,100.00
2023-04-03T00:51:04.998Z,100.00
2023-04-03T00:53:38.527Z,100.00
2023-04-03T00:56:08.012Z,100.00
2023-04-03T00:58:39.126Z,100.00
2023-04-03T01:01:08.285Z,100.00
2023-04-03T01:03:34.884Z,100.00
2023-04-03T01:06:01.680Z,100.00
2023-04-03T01:08:28.095Z,100.00
2023-04-03T01:10:54.564Z,100.00
2023-04-03T01:13:32.044Z,100.00
2023-04-03T01:16:01.910Z,100.00
2023-04-03T01:18:28.604Z,100.00
2023-04-03T01:21:22.354Z,100.00
2023-04-03T01:23:54.482Z,100.00
2023-04-03T01:26:21.103Z,100.00
2023-04-03T01:28:47.772Z,100.00
2023-04-03T01:31:21.844Z,100.00
2023-04-03T01:33:48.950Z,100.00
2023-04-03T01:36:19.142Z,100.00
2023-04-03T01:38:45.749Z,100.00
2023-04-03T01:41:12.239Z,100.00
2023-04-03T01:43:38.812Z,100.00
2023-04-03T01:46:05.492Z,100.00
2023-04-03T01:48:32.055Z,100.00
2023-04-03T01:50:58.567Z,100.00
2023-04-03T01:53:25.234Z,100.00
2023-04-03T01:55:51.838Z,100.00
2023-04-03T01:58:18.305Z,100.00
2023-04-03T02:00:44.791Z,100.00
2023-04-03T02:03:11.358Z,100.00
2023-04-03T02:05:38.688Z,100.00
2023-04-03T02:08:05.569Z,100.00
2023-04-03T02:10:32.031Z,100.00
2023-04-03T02:12:58.496Z,100.00
2023-04-03T02:15:25.059Z,100.00
2023-04-03T02:17:51.803Z,100.00
2023-04-03T02:20:18.396Z,100.00
2023-04-03T02:22:45.017Z,100.00
2023-04-03T02:25:11.681Z,100.00
2023-04-03T02:27:38.128Z,100.00
2023-04-03T02:30:06.157Z,100.00
2023-04-03T02:32:33.126Z,100.00
2023-04-03T02:34:59.645Z,100.00
2023-04-03T02:37:26.591Z,100.00
2023-04-03T02:39:53.097Z,100.00
2023-04-03T02:42:19.605Z,100.00
2023-04-03T02:44:46.182Z,100.00
2023-04-03T02:47:12.698Z,100.00
2023-04-03T02:49:39.146Z,100.00
2023-04-03T02:52:05.625Z,100.00
2023-04-03T02:54:32.163Z,100.00
2023-04-03T02:56:59.002Z,100.00
2023-04-03T02:59:25.786Z,100.00
2023-04-03T03:01:52.418Z,100.00
2023-04-03T03:04:19.594Z,100.00
2023-04-03T03:06:47.404Z,100.00
2023-04-03T03:09:14.337Z,100.00
2023-04-03T03:11:41.260Z,100.00
2023-04-03T03:14:07.807Z,100.00
2023-04-03T03:16:34.301Z,100.00
2023-04-03T03:19:01.014Z,100.00
2023-04-03T03:21:27.667Z,100.00
2023-04-03T03:23:54.222Z,100.00
2023-04-03T03:26:20.830Z,100.00
2023-04-03T03:28:47.388Z,100.00
2023-04-03T03:31:13.972Z,100.00
2023-04-03T03:33:40.772Z,100.00
2023-04-03T03:36:07.784Z,100.00
2023-04-03T03:38:34.264Z,100.00
2023-04-03T03:41:00.691Z,100.00
2023-04-03T03:43:27.158Z,100.00
2023-04-03T03:45:54.101Z,100.00
2023-04-03T03:48:21.903Z,100.00
2023-04-03T03:50:48.965Z,100.00
2023-04-03T03:53:16.096Z,100.00
2023-04-03T03:55:42.705Z,100.00
2023-04-03T03:58:09.179Z,100.00
2023-04-03T04:00:36.125Z,100.00
2023-04-03T04:03:02.769Z,100.00
2023-04-03T04:05:29.496Z,100.00
2023-04-03T04:07:55.982Z,100.00
2023-04-03T04:10:22.785Z,100.00
2023-04-03T04:12:50.154Z,100.00
2023-04-03T04:15:16.898Z,100.00
2023-04-03T04:17:43.351Z,100.00
2023-04-03T04:20:10.425Z,100.00
2023-04-03T04:22:36.982Z,100.00
2023-04-03T04:25:03.613Z,100.00
2023-04-03T04:27:30.294Z,100.00
2023-04-03T04:29:59.258Z,100.00
2023-04-03T04:32:26.057Z,100.00
2023-04-03T04:34:52.772Z,100.00
2023-04-03T04:37:19.282Z,100.00
2023-04-03T04:39:45.885Z,100.00
2023-04-03T04:42:15.554Z,100.00
2023-04-03T04:44:42.564Z,100.00
2023-04-03T04:47:09.108Z,100.00
2023-04-03T04:49:35.591Z,100.00
2023-04-03T04:52:02.101Z,100.00
2023-04-03T04:54:28.640Z,100.00
2023-04-03T04:56:55.457Z,100.00
2023-04-03T04:59:22.181Z,100.00
2023-04-03T05:01:48.810Z,100.00
2023-04-03T05:04:16.061Z,100.00
2023-04-03T05:06:42.524Z,100.00
2023-04-03T05:09:09.822Z,100.00
2023-04-03T05:11:36.420Z,100.00
2023-04-03T05:14:04.456Z,100.00
2023-04-03T05:16:30.931Z,100.00
2023-04-03T05:18:57.451Z,100.00
2023-04-03T05:21:25.873Z,100.00
2023-04-03T05:23:52.733Z,100.00
2023-04-03T05:26:19.253Z,100.00
2023-04-03T05:28:45.881Z,100.00
2023-04-03T05:31:12.473Z,100.00
2023-04-03T05:33:38.944Z,100.00
2023-04-03T05:36:06.165Z,100.00
2023-04-03T05:38:33.114Z,100.00
2023-04-03T05:40:59.946Z,100.00
2023-04-03T05:43:26.616Z,100.00
2023-04-03T05:45:53.161Z,100.00
2023-04-03T05:48:19.619Z,100.00
2023-04-03T05:50:47.064Z,100.00
2023-04-03T05:53:27.509Z,100.00
2023-04-03T05:55:54.897Z,100.00
2023-04-03T05:58:21.405Z,100.00
2023-04-03T06:00:48.058Z,100.00
2023-04-03T06:03:14.668Z,100.00
2023-04-03T06:05:41.280Z,100.00
2023-04-03T06:08:07.924Z,100.00
2023-04-03T06:10:34.460Z,100.00
2023-04-03T06:13:01.043Z,100.00
2023-04-03T06:15:28.255Z,100.00
2023-04-03T06:17:55.046Z,100.00
2023-04-03T06:20:21.955Z,100.00
2023-04-03T06:22:48.651Z,100.00
2023-04-03T06:25:15.387Z,100.00
2023-04-03T06:27:41.876Z,100.00
2023-04-03T06:30:08.980Z,100.00
2023-04-03T06:32:35.529Z,100.00
2023-04-03T06:35:02.074Z,100.00
2023-04-03T06:37:29.889Z,100.00
2023-04-03T06:39:56.502Z,100.00
2023-04-03T06:42:23.372Z,100.00
2023-04-03T06:44:49.901Z,100.00
2023-04-03T06:47:17.441Z,100.00
2023-04-03T06:49:44.183Z,100.00
2023-04-03T06:52:10.962Z,100.00
2023-04-03T06:54:37.417Z,100.00
2023-04-03T06:57:04.273Z,100.00
2023-04-03T06:59:30.875Z,100.00
2023-04-03T07:01:57.606Z,100.00
2023-04-03T07:04:24.232Z,100.00
2023-04-03T07:06:51.536Z,100.00
2023-04-03T07:09:17.986Z,100.00
2023-04-03T07:11:44.527Z,100.00
2023-04-03T07:14:11.025Z,100.00
2023-04-03T07:16:40.016Z,100.00
2023-04-03T07:19:09.418Z,100.00
2023-04-03T07:21:36.460Z,100.00
2023-04-03T07:24:03.094Z,100.00
2023-04-03T07:26:29.633Z,100.00
2023-04-03T07:28:56.119Z,100.00
2023-04-03T07:31:22.659Z,100.00
2023-04-03T07:33:49.194Z,100.00
2023-04-03T07:36:19.249Z,100.00
2023-04-03T07:38:46.482Z,100.00
2023-04-03T07:41:18.490Z,100.00
2023-04-03T07:43:46.156Z,100.00
2023-04-03T07:46:13.079Z,100.00
2023-04-03T07:48:39.765Z,100.00
2023-04-03T07:51:06.591Z,100.00
2023-04-03T07:53:33.363Z,100.00
2023-04-03T07:56:00.232Z,100.00
2023-04-03T07:58:26.853Z,100.00
2023-04-03T08:00:53.628Z,100.00
2023-04-03T08:03:20.383Z,100.00
2023-04-03T08:05:48.457Z,100.00
2023-04-03T08:08:19.950Z,100.00
2023-04-03T08:10:52.581Z,100.00
2023-04-03T08:13:19.834Z,100.00
2023-04-03T08:15:46.448Z,100.00
2023-04-03T08:18:14.000Z,100.00
2023-04-03T08:20:41.393Z,100.00
2023-04-03T08:23:08.875Z,100.00
2023-04-03T08:25:39.525Z,100.00
2023-04-03T08:28:06.001Z,100.00
2023-04-03T08:30:32.400Z,100.00
2023-04-03T08:33:02.097Z,100.00
2023-04-03T08:35:28.938Z,100.00
2023-04-03T08:37:55.558Z,97.33
2023-04-03T08:40:22.295Z,97.21
2023-04-03T08:42:57.908Z,93.70
2023-04-03T08:45:52.557Z,89.72
2023-04-03T08:48:29.020Z,90.92
2023-04-03T08:51:03.046Z,90.69
2023-04-03T08:53:33.984Z,89.73
2023-04-03T08:56:05.456Z,86.96
2023-04-03T08:58:38.279Z,88.07
2023-04-03T09:01:15.661Z,85.31
2023-04-03T09:03:42.429Z,82.40
2023-04-03T09:06:16.164Z,80.12
2023-04-03T09:08:54.654Z,80.33
2023-04-03T09:11:30.052Z,80.01
2023-04-03T09:14:27.377Z,79.91
2023-04-03T09:16:59.242Z,80.46
2023-04-03T09:19:29.618Z,81.33
2023-04-03T09:21:58.214Z,79.82
2023-04-03T09:24:25.374Z,78.92
2023-04-03T09:27:00.759Z,75.31
2023-04-03T09:29:27.719Z,74.70
2023-04-03T09:31:58.161Z,71.79
2023-04-03T09:34:43.008Z,72.19
2023-04-03T09:37:09.656Z,71.08
2023-04-03T09:39:55.091Z,74.09
2023-04-03T09:42:23.687Z,73.10
2023-04-03T09:44:59.057Z,72.89
2023-04-03T09:47:28.930Z,69.12
2023-04-03T09:50:16.664Z,67.15
2023-04-03T09:52:45.216Z,70.67
2023-04-03T09:55:30.548Z,70.09
2023-04-03T09:57:59.793Z,66.86
2023-04-03T10:00:29.837Z,66.91
2023-04-03T10:02:57.438Z,69.30
2023-04-03T10:05:31.881Z,69.45
2023-04-03T10:08:27.152Z,68.04
2023-04-03T10:11:10.806Z,69.54
2023-04-03T10:13:50.796Z,66.68
2023-04-03T10:16:21.662Z,65.47
2023-04-03T10:19:04.287Z,66.46
2023-04-03T10:21:39.670Z,66.96
2023-04-03T10:24:26.706Z,63.56
2023-04-03T10:27:14.920Z,63.13
2023-04-03T10:29:41.943Z,63.41
2023-04-03T10:32:15.018Z,63.42
2023-04-03T10:34:54.738Z,60.74
2023-04-03T10:37:38.380Z,63.48
2023-04-03T10:40:35.285Z,64.88
2023-04-03T10:43:01.749Z,66.59
2023-04-03T10:46:01.647Z,64.40
2023-04-03T10:48:31.098Z,65.15
2023-04-03T10:51:09.607Z,66.96
2023-04-03T10:53:40.700Z,68.17
2023-04-03T10:56:14.906Z,69.69
2023-04-03T10:58:45.149Z,71.04
2023-04-03T11:01:20.393Z,68.45
2023-04-03T11:03:51.514Z,65.16
2023-04-03T11:06:19.347Z,67.42
2023-04-03T11:08:50.442Z,66.66
2023-04-03T11:11:22.639Z,62.47
2023-04-03T11:14:14.253Z,60.41
2023-04-03T11:16:53.603Z,59.12
2023-04-03T11:19:27.881Z,58.80
2023-04-03T11:22:38.552Z,57.78
2023-04-03T11:25:13.737Z,57.92
2023-04-03T11:27:43.166Z,56.46
2023-04-03T11:30:18.821Z,56.52
2023-04-03T11:33:10.159Z,59.46
2023-04-03T11:35:38.004Z,58.43
2023-04-03T11:38:08.941Z,56.03
2023-04-03T11:40:36.790Z,57.00
2023-04-03T11:43:05.080Z,58.43
2023-04-03T11:45:51.826Z,57.05
2023-04-03T11:48:34.142Z,56.73
2023-04-03T11:51:22.120Z,56.03
2023-04-03T11:53:49.518Z,56.95
2023-04-03T11:56:25.552Z,56.83
2023-04-03T11:59:19.327Z,54.88
2023-04-03T12:01:48.793Z,52.22
2023-04-03T12:04:16.901Z,49.12
2023-04-03T12:06:50.544Z,50.00
2023-04-03T12:09:57.522Z,48.40
2023-04-03T12:12:29.926Z,50.54
2023-04-03T12:14:56.414Z,54.22
2023-04-03T12:17:28.718Z,54.82
2023-04-03T12:19:55.324Z,52.31
2023-04-03T12:22:22.346Z,54.42
2023-04-03T12:24:51.606Z,55.83
2023-04-03T12:27:39.794Z,55.76
2023-04-03T12:30:29.120Z,54.20
2023-04-03T12:33:13.163Z,53.41
2023-04-03T12:36:00.624Z,51.78
2023-04-03T12:39:10.585Z,51.30
2023-04-03T12:41:36.998Z,47.79
2023-04-03T12:44:09.983Z,47.53
2023-04-03T12:46:48.488Z,47.10
2023-04-03T12:49:21.137Z,48.10
2023-04-03T12:51:47.998Z,48.78
2023-04-03T12:54:27.560Z,49.00
2023-04-03T12:57:11.436Z,47.03
2023-04-03T12:59:39.216Z,46.20
2023-04-03T13:02:17.944Z,46.73
2023-04-03T13:04:44.623Z,46.89
2023-04-03T13:07:21.881Z,48.06
2023-04-03T13:09:56.859Z,48.99
2023-04-03T13:12:23.379Z,47.54
2023-04-03T13:14:59.515Z,49.28
2023-04-03T13:17:27.057Z,49.95
2023-04-03T13:19:54.033Z,49.52
2023-04-03T13:22:26.470Z,48.15
2023-04-03T13:24:55.699Z,48.26
2023-04-03T13:27:22.587Z,47.95
2023-04-03T13:29:54.087Z,49.42
2023-04-03T13:32:24.067Z,49.07
2023-04-03T13:34:51.336Z,48.94
2023-04-03T13:37:28.792Z,49.06
2023-04-03T13:40:14.087Z,50.45
2023-04-03T13:42:42.373Z,51.26
2023-04-03T13:45:27.159Z,50.54
2023-04-03T13:48:12.841Z,50.29
2023-04-03T13:51:23.594Z,50.50
2023-04-03T13:53:54.696Z,50.65
2023-04-03T13:56:38.603Z,50.48
2023-04-03T13:59:23.049Z,49.66
2023-04-03T14:01:56.336Z,49.61
2023-04-03T14:04:29.027Z,48.72
2023-04-03T14:06:56.333Z,50.39
2023-04-03T14:09:24.358Z,51.01
2023-04-03T14:11:54.490Z,51.34
2023-04-03T14:14:31.731Z,52.49
2023-04-03T14:17:01.022Z,52.95
2023-04-03T14:19:36.330Z,52.76
2023-04-03T14:22:38.022Z,52.83
2023-04-03T14:25:05.084Z,52.87
2023-04-03T14:27:38.869Z,51.74
2023-04-03T14:30:11.058Z,51.54
2023-04-03T14:32:37.945Z,51.15
2023-04-03T14:35:05.594Z,51.22
2023-04-03T14:37:33.329Z,50.93
2023-04-03T14:40:01.265Z,52.62
2023-04-03T14:42:31.821Z,53.34
2023-04-03T14:45:00.303Z,53.97
2023-04-03T14:47:31.661Z,52.68
2023-04-03T14:50:02.453Z,52.63
2023-04-03T14:52:35.223Z,53.10
2023-04-03T14:55:02.208Z,52.42
2023-04-03T14:57:30.051Z,53.06
2023-04-03T14:59:56.757Z,53.15
2023-04-03T15:02:37.997Z,53.55
2023-04-03T15:05:07.702Z,52.48
2023-04-03T15:07:40.070Z,51.98
2023-04-03T15:10:28.028Z,52.16
2023-04-03T15:12:54.764Z,52.68
2023-04-03T15:15:23.515Z,52.50
2023-04-03T15:17:55.464Z,53.02
2023-04-03T15:20:24.950Z,53.31
2023-04-03T15:22:51.938Z,54.45
2023-04-03T15:25:19.179Z,54.70
2023-04-03T15:27:46.117Z,54.98
2023-04-03T15:30:16.430Z,55.68
2023-04-03T15:32:43.107Z,55.41
2023-04-03T15:35:10.173Z,56.27
2023-04-03T15:37:36.672Z,54.59
2023-04-03T15:40:05.149Z,55.53
2023-04-03T15:42:31.723Z,55.38
2023-04-03T15:44:58.241Z,53.94
2023-04-03T15:47:26.113Z,54.26
2023-04-03T15:49:52.983Z,53.99
2023-04-03T15:52:19.685Z,54.45
2023-04-03T15:54:46.223Z,54.41
2023-04-03T15:57:12.726Z,55.48
2023-04-03T15:59:39.296Z,55.52
2023-04-03T16:02:07.590Z,57.13
2023-04-03T16:04:34.366Z,58.10
2023-04-03T16:07:05.287Z,58.46
2023-04-03T16:09:33.118Z,58.84
2023-04-03T16:11:59.661Z,59.31
2023-04-03T16:14:26.172Z,58.35
2023-04-03T16:16:52.691Z,57.75
2023-04-03T16:19:19.407Z,57.93
2023-04-03T16:21:46.793Z,57.87
2023-04-03T16:24:14.466Z,56.86
2023-04-03T16:26:42.644Z,56.57
2023-04-03T16:29:09.217Z,58.20
2023-04-03T16:31:35.910Z,60.29
2023-04-03T16:34:03.308Z,62.30
2023-04-03T16:36:29.922Z,61.62
2023-04-03T16:38:56.397Z,61.95
2023-04-03T16:41:23.216Z,62.38
2023-04-03T16:43:50.920Z,63.77
2023-04-03T16:46:17.512Z,62.93
2023-04-03T16:48:43.967Z,61.43
2023-04-03T16:51:10.533Z,61.74
2023-04-03T16:53:37.073Z,60.79
2023-04-03T16:56:03.613Z,60.07
2023-04-03T16:58:30.077Z,61.19
2023-04-03T17:00:56.721Z,61.38
2023-04-03T17:03:26.449Z,60.80
2023-04-03T17:05:53.329Z,59.73
2023-04-03T17:08:19.971Z,59.33
2023-04-03T17:10:46.605Z,59.55
2023-04-03T17:13:13.075Z,58.90
2023-04-03T17:15:39.814Z,58.95
2023-04-03T17:18:07.855Z,59.22
2023-04-03T17:20:34.786Z,60.53
2023-04-03T17:23:01.415Z,61.56
2023-04-03T17:25:28.065Z,62.45
2023-04-03T17:27:54.569Z,63.55
2023-04-03T17:30:21.040Z,64.20
2023-04-03T17:32:47.658Z,64.40
2023-04-03T17:35:14.331Z,63.65
2023-04-03T17:37:40.818Z,65.02
2023-04-03T17:40:07.981Z,66.02
2023-04-03T17:42:34.571Z,66.86
2023-04-03T17:45:01.351Z,68.54
2023-04-03T17:47:27.837Z,67.99
2023-04-03T17:49:54.506Z,66.82
2023-04-03T17:52:24.076Z,66.66
2023-04-03T17:54:51.028Z,65.12
2023-04-03T17:57:17.599Z,63.18
2023-04-03T17:59:44.083Z,63.75
2023-04-03T18:02:10.846Z,64.04
2023-04-03T18:04:37.313Z,64.43
2023-04-03T18:07:04.002Z,66.00
2023-04-03T18:09:32.258Z,67.10
2023-04-03T18:12:01.137Z,68.72
2023-04-03T18:14:28.146Z,68.68
2023-04-03T18:16:57.355Z,69.13
2023-04-03T18:19:25.010Z,69.54
2023-04-03T18:21:53.079Z,70.15
2023-04-03T18:24:22.412Z,70.90
2023-04-03T18:26:55.844Z,69.92
2023-04-03T18:29:24.395Z,69.32
2023-04-03T18:31:53.036Z,67.17
2023-04-03T18:34:19.650Z,67.41
2023-04-03T18:36:47.481Z,66.46
2023-04-03T18:39:15.005Z,67.29
2023-04-03T18:41:42.381Z,68.53
2023-04-03T18:44:12.162Z,69.02
2023-04-03T18:46:39.959Z,67.97
2023-04-03T18:49:07.954Z,67.22
2023-04-03T18:51:35.370Z,66.60
2023-04-03T18:54:02.688Z,67.60
2023-04-03T18:56:30.933Z,66.27
2023-04-03T18:58:58.400Z,66.16
2023-04-03T19:01:25.010Z,66.50
2023-04-03T19:03:51.974Z,67.19
2023-04-03T19:06:19.096Z,67.77
2023-04-03T19:08:46.037Z,68.00
2023-04-03T19:11:12.559Z,68.13
2023-04-03T19:13:47.016Z,66.59
2023-04-03T19:16:27.213Z,65.00
2023-04-03T19:18:53.901Z,65.00
2023-04-03T19:21:20.534Z,65.75
2023-04-03T19:23:48.650Z,66.23
2023-04-03T19:26:15.296Z,67.82
2023-04-03T19:28:43.088Z,66.31
2023-04-03T19:31:17.144Z,65.81
2023-04-03T19:33:44.436Z,66.50
2023-04-03T19:36:12.042Z,66.27
2023-04-03T19:38:39.133Z,66.99
2023-04-03T19:41:18.988Z,67.62
2023-04-03T19:43:46.001Z,67.63
2023-04-03T19:46:12.881Z,67.58
2023-04-03T19:48:39.447Z,66.62
2023-04-03T19:51:06.149Z,67.09
2023-04-03T19:53:32.958Z,67.28
2023-04-03T19:56:00.771Z,66.91
2023-04-03T19:58:30.220Z,67.20
2023-04-03T20:00:57.610Z,67.49
2023-04-03T20:03:25.137Z,67.24
2023-04-03T20:05:52.803Z,67.45
2023-04-03T20:08:19.851Z,66.87
2023-04-03T20:10:46.983Z,67.04
2023-04-03T20:13:13.953Z,67.67
2023-04-03T20:15:44.828Z,68.62
2023-04-03T20:18:18.086Z,69.05
2023-04-03T20:20:56.005Z,70.49
2023-04-03T20:23:22.936Z,70.14
2023-04-03T20:25:58.037Z,70.76
2023-04-03T20:28:34.045Z,70.41
2023-04-03T20:31:02.032Z,70.64
2023-04-03T20:33:28.711Z,70.82
2023-04-03T20:35:57.510Z,70.68
2023-04-03T20:38:24.545Z,71.32
2023-04-03T20:40:51.502Z,72.29
2023-04-03T20:43:18.079Z,72.40
2023-04-03T20:45:44.666Z,72.64
2023-04-03T20:48:13.102Z,72.90
2023-04-03T20:50:41.243Z,73.43
2023-04-03T20:53:08.912Z,73.70
2023-04-03T20:55:35.546Z,73.63
2023-04-03T20:58:02.255Z,73.59
2023-04-03T21:00:31.629Z,73.33
2023-04-03T21:02:59.647Z,73.87
2023-04-03T21:05:28.990Z,74.17
2023-04-03T21:08:33.419Z,74.02
2023-04-03T21:11:37.590Z,74.25
2023-04-03T21:14:42.457Z,74.59
2023-04-03T21:17:08.839Z,74.41
2023-04-03T21:19:40.114Z,74.15
2023-04-03T21:22:06.643Z,75.01
2023-04-03T21:24:33.200Z,75.34
2023-04-03T21:26:59.674Z,75.80
2023-04-03T21:29:26.163Z,76.97
2023-04-03T21:31:56.713Z,77.40
2023-04-03T21:34:30.764Z,77.53
2023-04-03T21:37:01.636Z,77.73
2023-04-03T21:39:28.435Z,78.02
2023-04-03T21:41:55.270Z,78.39
2023-04-03T21:44:22.628Z,79.05
2023-04-03T21:46:54.329Z,79.37
2023-04-03T21:49:24.521Z,79.55
2023-04-03T21:51:52.606Z,79.93
2023-04-03T21:54:20.073Z,80.12
2023-04-03T21:56:51.423Z,80.03
2023-04-03T21:59:18.328Z,80.74
2023-04-03T22:01:44.973Z,81.29
2023-04-03T22:04:11.533Z,81.50
2023-04-03T22:06:38.261Z,82.00
2023-04-03T22:09:04.993Z,82.35
2023-04-03T22:11:31.659Z,83.10
2023-04-03T22:13:58.213Z,83.48
2023-04-03T22:16:24.912Z,83.99
2023-04-03T22:18:52.606Z,84.71
2023-04-03T22:21:19.706Z,85.38
2023-04-03T22:23:46.353Z,85.07
2023-04-03T22:26:13.430Z,85.30
2023-04-03T22:28:42.034Z,85.26
2023-04-03T22:31:10.800Z,85.27
2023-04-03T22:33:37.934Z,85.54
2023-04-03T22:36:06.108Z,85.70
2023-04-03T22:38:33.215Z,85.94
2023-04-03T22:41:01.660Z,85.69
2023-04-03T22:43:28.996Z,85.84
2023-04-03T22:45:56.301Z,85.49
2023-04-03T22:48:23.990Z,84.03
2023-04-03T22:50:53.632Z,82.75
2023-04-03T22:53:20.312Z,81.33
2023-04-03T22:56:00.482Z,80.86
2023-04-03T22:58:27.717Z,80.61
2023-04-03T23:01:14.730Z,79.96
2023-04-03T23:03:42.379Z,79.54
2023-04-03T23:06:09.875Z,79.18
2023-04-03T23:08:40.664Z,78.65
2023-04-03T23:11:07.495Z,78.63
2023-04-03T23:13:34.116Z,78.20
2023-04-03T23:16:01.465Z,78.22
2023-04-03T23:18:30.143Z,77.92
2023-04-03T23:20:58.628Z,77.09
2023-04-03T23:23:25.379Z,77.01
2023-04-03T23:25:57.113Z,76.92
2023-04-03T23:28:23.865Z,77.61
2023-04-03T23:30:51.668Z,77.34
2023-04-03T23:33:18.185Z,77.03
2023-04-03T23:35:46.600Z,76.50
2023-04-03T23:38:13.419Z,76.74
2023-04-03T23:40:41.775Z,76.96
2023-04-03T23:43:08.357Z,77.01
2023-04-03T23:45:34.927Z,76.66
2023-04-03T23:48:01.972Z,76.73
2023-04-03T23:50:28.852Z,77.02
2023-04-03T23:52:55.562Z,77.55
2023-04-03T23:55:22.169Z,77.94
2023-04-03T23:57:48.738Z,78.07
